Tiempo atmosférico en la estación meteorológica de Zarza La Mayor, Cáceres (336 m.)



Fecha
DESCASC
Temp. máxima en grados centígrados (hora)
DESCASC
Temp. mínima en grados centígrados (hora)
DESCASC
Temp. media en grados centígrados
DESCASC
Racha de viento máxima en m/sg (hora)
DESCASC
Velocidad máxima media en intervalos de 10 minutos(hora)
DESCASC
Precipitaciones diarias en mm
DESCASC
Precipitaciones de 00:00 a 06:00 en mm
DESCASC
Precipitaciones de 06:00 a 12:00 en mm
DESCASC
Precipitaciones de 12:00 a 18:00 en mm
DESCASC
Precipitaciones de 18:00 a 24:00 en mm
DESCASC
17-09-2020 25 (14:20) 17.8 (23:10) 21.4 10.56 (15:00) 6.94 (17:50) 4.8 0 0 1 3.8
16-09-2020 29.5 (15:50) 15.2 (08:50) 22.3 6.11 (22:50) 4.44 (22:50) 0 0 0 0 0
15-09-2020 30.5 (16:40) 16.2 (08:10) 23.4 8.06 (15:30) 5 (03:20) 0 0 0 0 0
14-09-2020 30.7 (14:50) 21 (00:00) 25.9 10 (15:20) 6.67 (17:20) 0 0 0 0 0
13-09-2020 35.8 (17:40) 21.6 (00:00) 28.7 9.72 (18:30) 6.11 (18:10) 0 0 0 0 0
12-09-2020 36.4 (17:00) 20.2 (00:00) 28.3 7.22 (12:20) 4.17 (10:50) 0 0 0 0 0
11-09-2020 35.7 (16:50) 18.6 (00:00) 27.2 6.94 (10:30) 4.17 (10:20) 0 0 0 0 0
10-09-2020 34.5 (18:10) 16.3 (00:00) 25.4 5.83 (13:00) 3.61 (15:10) 0 0 0 0 0
09-09-2020 32.8 (17:00) 17 (00:00) 24.9 5.56 (09:40) 3.33 (09:40) 0 0 0 0 0
08-09-2020 29.5 (18:00) 17.9 (00:00) 23.7 11.67 (11:40) 6.94 (11:40) 0 0 0 0 0
07-09-2020 32.7 (17:20) 19.4 (08:20) 26.1 8.33 (23:59) 5.56 (10:10) 0 0 0 0 0
06-09-2020 36.7 (17:40) 20.7 (00:00) 28.7 6.67 (11:30) 4.17 (12:00) 0 0 0 0 0
05-09-2020 37.2 (17:50) 20.7 (00:00) 29 7.22 (08:50) 4.44 (09:00) 0 0 0 0 0
04-09-2020 36.6 (17:00) 19.1 (00:00) 27.8 6.94 (03:40) 3.61 (06:20) 0 0 0 0 0
03-09-2020 35.8 (17:30) 18.5 (00:00) 27.1 7.78 (10:50) 5 (10:50) 0 0 0 0 0
02-09-2020 34 (18:10) 17.8 (00:00) 25.9 8.33 (11:20) 5 (08:50) 0 0 0 0 0
01-09-2020 32.9 (16:50) 16.2 (00:00) 24.6 6.94 (17:10) 3.61 (18:10) 0 0 0 0 0
31-08-2020 30.4 (18:40) 15.5 (00:00) 22.9 8.33 (16:20) 5 (09:50) 0 0 0 0 0
30-08-2020 28.4 (19:00) 13.1 (00:00) 20.8 9.17 (10:50) 5.83 (10:50) 0 0 0 0 0
29-08-2020 27.1 (17:30) 14.6 (00:00) 20.9 14.17 (12:40) 8.33 (10:30) 0 0 0 0 0
28-08-2020 32.7 (17:30) 19.6 (00:00) 26.2 13.61 (12:20) 7.5 (11:00) 0 0 0 0 0
27-08-2020 38.5 (17:40) 20.2 (00:00) 29.4 10.83 (20:20) 7.5 (20:20) 0 0 0 0 0
26-08-2020 39.3 (18:10) 18.5 (00:00) 28.9 10.28 (21:40) 5.56 (21:40) 0 0 0 0 0
25-08-2020 38.9 (17:10) 18.5 (00:00) 28.7 8.33 (17:10) 5 (17:40) 0 0 0 0 0
24-08-2020 38.1 (18:40) 21 (00:00) 29.5 7.78 (11:00) 4.17 (11:00) 0 0 0 0 0
23-08-2020 36.2 (18:10) 17 (00:00) 26.6 6.67 (18:00) 4.17 (17:50) 0 0 0 0 0
22-08-2020 35 (18:40) 15.5 (00:00) 25.3 10 (23:10) 6.67 (23:10) 0 0 0 0 0
21-08-2020 29.2 (18:20) 20.1 (00:00) 24.7 8.89 (17:50) 5.83 (18:20) 0.2 0 0 0.2 0

Gráficas

Temp. máximas Temp. mínimas Temp. medias Precipitaciones Rachas de viento máximas Velocidades máximas media en intervalos de 10 minutos

Datos horarios

Fecha y hora oficial Temperatura (ºC) Velocidad del viento (km/h) Dirección del viento Racha (km/h) Dirección de racha Precipitación (mm) Presión (hPa) Tendencia (hPa) Humedad (%)
2020-09-19 23:00:00 18.6 3 Sur 14 Sudoeste 0 -- -- 84
2020-09-19 22:00:00 18.7 12 Sudoeste 20 Sudoeste 0 -- -- 82
2020-09-19 21:00:00 18.2 4 Este 9 Oeste 0.2 -- -- 88
2020-09-19 20:00:00 18.7 5 Oeste 31 Sudoeste 0 -- -- 85
2020-09-19 19:00:00 19.8 7 Este 10 Este 0 -- -- 80
2020-09-19 18:00:00 19.2 3 Noroeste 17 Noroeste 0 -- -- 83
2020-09-19 17:00:00 18.4 9 Oeste 17 Oeste 0.2 -- -- 82
2020-09-19 16:00:00 19.3 19 Sudoeste 31 Sudoeste 0.2 -- -- 78
2020-09-19 15:00:00 20.8 11 Sudoeste 25 Sudoeste 0 -- -- 70
2020-09-19 14:00:00 19.7 19 Sudoeste 28 Sudoeste 0 -- -- 74
2020-09-19 13:00:00 19 20 Sudoeste 32 Sudoeste 0 -- -- 80
2020-09-19 12:00:00 18 22 Sudoeste 32 Sudoeste 0 -- -- 87
2020-09-19 11:00:00 17.2 15 Sudoeste 24 Sudoeste 0 -- -- 93
2020-09-19 10:00:00 16.9 16 Sudoeste 25 Sudoeste 0 -- -- 95
2020-09-19 09:00:00 16.4 17 Sudoeste 28 Sur 0 -- -- 95
2020-09-19 08:00:00 16.3 14 Sudoeste 28 Sudoeste 0.6 -- -- 96
2020-09-19 07:00:00 16.3 19 Sudoeste 32 Sudoeste 1.8 -- -- 96
2020-09-19 06:00:00 16.1 22 Sudoeste 37 Sudoeste 1.8 -- -- 95
2020-09-19 05:00:00 16.6 20 Sudoeste 30 Sudoeste 0 -- -- 94
2020-09-19 04:00:00 16.8 19 Sudoeste 35 Sudoeste 0 -- -- 94
2020-09-19 03:00:00 16.9 24 Sur 45 Sur 0 -- -- 92
2020-09-19 02:00:00 16.7 24 Sur 54 Sudeste 4.2 -- -- 94
2020-09-19 01:00:00 16.7 20 Sudeste 35 Sudeste 1.6 -- -- 94
2020-09-19 00:00:00 16.9 19 Sur 35 Sur 3.4 -- -- 93
2020-09-18 23:00:00 17.3 18 Sur 45 Sudeste 2.4 -- -- 93
2020-09-18 22:00:00 17.2 19 Sudeste 29 Sudeste 0 -- -- 92
2020-09-18 21:00:00 16.8 15 Sudeste 25 Sudeste 1.6 -- -- 92
2020-09-18 20:00:00 16.6 15 Sudeste 40 Sudeste 3.6 -- -- 92
2020-09-18 19:00:00 17.7 17 Sudeste 54 Sudeste 1.2 -- -- 85
2020-09-18 18:00:00 22.1 23 Sudeste 41 Sudeste 0 -- -- 60
2020-09-18 17:00:00 22.1 21 Sudeste 63 Sudeste 0 -- -- 61
2020-09-18 16:00:00 22 27 Sudeste 46 Sur 0 -- -- 60
2020-09-18 15:00:00 23.2 22 Sudeste 38 Sudeste 0 -- -- 57
2020-09-18 14:00:00 21.7 18 Sudeste 32 Sudeste 0 -- -- 56
2020-09-18 13:00:00 22.7 17 Este 33 Este 0 -- -- 60
2020-09-18 12:00:00 20.4 19 Este 31 Este 0 -- -- 68
2020-09-18 11:00:00 18 13 Este 25 Sudeste 0 -- -- 84
2020-09-18 10:00:00 17 9 Este 16 Este 0 -- -- 93
2020-09-18 09:00:00 15.9 4 Nordeste 11 Sudeste 0 -- -- 96
2020-09-18 08:00:00 15.9 9 Sudeste 13 Sudeste 0 -- -- 95
2020-09-18 07:00:00 15.9 7 Sur 9 Sudeste 0 -- -- 95
2020-09-18 06:00:00 15.8 0 Calma 12 Sur 0.2 -- -- 94
2020-09-18 05:00:00 16.6 7 Sudeste 13 Sudeste 0 -- -- 94
2020-09-18 04:00:00 17.1 11 Sur 15 Sur 0 -- -- 94
2020-09-18 03:00:00 17.3 3 Sudeste 8 Sudeste 0 -- -- 92
2020-09-18 02:00:00 17.8 2 Sudeste 12 Sur 0 -- -- 92
2020-09-18 01:00:00 17.8 9 Sudeste 16 Sudeste 0 -- -- 93
2020-09-18 00:00:00 17.9 9 Sudeste 13 Sudeste 0 -- -- 92
2020-09-17 23:00:00 17.9 7 Nordeste 10 Nordeste 0 -- -- 92
2020-09-17 22:00:00 18.2 3 Sudoeste 19 Sudoeste 1.6 -- -- 90
2020-09-17 21:00:00 18.1 9 Sur 28 Sudoeste 2 -- -- 90
2020-09-17 20:00:00 19.7 12 Oeste 22 Oeste 0.2 -- -- 78
2020-09-17 19:00:00 20.2 6 Oeste 26 Sur 0 -- -- 76
2020-09-17 18:00:00 19.7 18 Sudeste 37 Sudeste 1 -- -- 84
2020-09-17 17:00:00 24.5 14 Sudeste 29 Este 0 -- -- 51
2020-09-17 16:00:00 24.9 18 Este 34 Sudeste 0 -- -- 52
2020-09-17 15:00:00 24.3 24 Sudeste 38 Sudeste 0 -- -- 51
2020-09-17 14:00:00 24.7 10 Sudeste 30 Sudeste 0 -- -- 50
2020-09-17 13:00:00 24 14 Sudeste 23 Sudeste 0 -- -- 55
2020-09-17 12:00:00 23.4 12 Sudeste 24 Este 0 -- -- 58
2020-09-17 11:00:00 22.4 15 Sudeste 23 Sudeste 0 -- -- 60
2020-09-17 10:00:00 20.8 5 Este 11 Este 0 -- -- 62
2020-09-17 09:00:00 19.4 8 Este 14 Este 0 -- -- 65
2020-09-17 08:00:00 19 10 Este 15 Este 0 -- -- 65
2020-09-17 07:00:00 19.1 9 Este 17 Este 0 -- -- 64
2020-09-17 06:00:00 19.2 7 Este 13 Este 0 -- -- 64
2020-09-17 05:00:00 19.5 8 Este 13 Este 0 -- -- 63
2020-09-17 04:00:00 20 4 Nordeste 10 Sudeste 0 -- -- 60
2020-09-17 03:00:00 20.4 5 Sudeste 10 Sudeste 0 -- -- 59
2020-09-17 02:00:00 20.9 0 Calma 22 Sudoeste 0 -- -- 56
2020-09-17 01:00:00 21.5 16 Sudoeste 21 Sudoeste 0 -- -- 54
2020-09-17 00:00:00 21.9 13 Sudoeste 20 Sudoeste 0 -- -- 51
2020-09-16 23:00:00 23.1 15 Sudoeste 22 Sudoeste 0 -- -- 48
2020-09-16 22:00:00 24.7 7 Sudoeste 11 Oeste 0 -- -- 43
2020-09-16 21:00:00 25.3 8 Oeste 12 Oeste 0 -- -- 42
2020-09-16 20:00:00 28.2 6 Sudoeste 12 Sudoeste 0 -- -- 35
2020-09-16 19:00:00 28.1 7 Sudoeste 13 Sur 0 -- -- 35
2020-09-16 18:00:00 28.9 7 Sur 13 Oeste 0 -- -- 34
2020-09-16 17:00:00 29.1 4 Sudeste 17 Sur 0 -- -- 34
2020-09-16 16:00:00 29.4 8 Sur 17 Sur 0 -- -- 33
2020-09-16 15:00:00 28.9 12 Sur 20 Sur 0 -- -- 34
2020-09-16 14:00:00 27.8 5 Este 17 Este 0 -- -- 36
2020-09-16 13:00:00 25.5 3 Este 9 Norte 0 -- -- 40
2020-09-16 12:00:00 22.2 3 Norte 9 Nordeste 0 -- -- 49
2020-09-16 11:00:00 19.6 5 Nordeste 10 Nordeste 0 -- -- 57
2020-09-16 10:00:00 17.3 2 Norte 5 Nordeste 0 -- -- 62
2020-09-16 09:00:00 15.4 0 Calma 5 Nordeste 0 -- -- 68
2020-09-16 08:00:00 15.9 0 Calma 5 Nordeste 0 -- -- 71
2020-09-16 07:00:00 16.3 4 Nordeste 5 Nordeste 0 -- -- 67
2020-09-16 06:00:00 16.4 2 Noroeste 5 Noroeste 0 -- -- 60
2020-09-16 05:00:00 17.5 3 Sudoeste 4 Sudoeste 0 -- -- 59
2020-09-16 04:00:00 17.9 0 Calma 4 Sudoeste 0 -- -- 56
2020-09-16 03:00:00 19.2 3 Sudoeste 14 Sudoeste 0 -- -- 52
2020-09-16 02:00:00 20.9 9 Sudoeste 13 Sudoeste 0 -- -- 48
2020-09-16 01:00:00 21.3 3 Sudoeste 4 Sudoeste 0 -- -- 46
2020-09-16 00:00:00 22.2 3 Oeste 7 Sudoeste 0 -- -- 44
2020-09-15 23:00:00 23.1 6 Sudoeste 10 Sudoeste 0 -- -- 41
2020-09-15 22:00:00 24.2 6 Sudoeste 10 Sudoeste 0 -- -- 39
2020-09-15 21:00:00 26.1 5 Sudoeste 18 Sudeste 0 -- -- 36
2020-09-15 20:00:00 28.2 9 Sur 25 Sur 0 -- -- 33
2020-09-15 19:00:00 29.5 10 Sudeste 20 Sur 0 -- -- 30
2020-09-15 18:00:00 30.1 13 Sur 27 Sur 0 -- -- 30
2020-09-15 17:00:00 29.8 13 Sudeste 29 Sur 0 -- -- 29
2020-09-15 16:00:00 29.4 10 Sudeste 29 Sur 0 -- -- 33
2020-09-15 15:00:00 28.3 8 Sudoeste 22 Sudoeste 0 -- -- 36
2020-09-15 14:00:00 27.4 12 Sudeste 28 Sur 0 -- -- 39
2020-09-15 13:00:00 26.1 4 Este 16 Sur 0 -- -- 47
2020-09-15 12:00:00 23.8 6 Sudeste 12 Sudoeste 0 -- -- 54
2020-09-15 11:00:00 21.3 5 Sudoeste 12 Sudoeste 0 -- -- 64
2020-09-15 10:00:00 19 8 Sudoeste 15 Sudoeste 0 -- -- 74
2020-09-15 09:00:00 16.9 7 Sudoeste 10 Sudoeste 0 -- -- 80
2020-09-15 08:00:00 16.3 3 Sudoeste 5 Sudoeste 0 -- -- 77
2020-09-15 07:00:00 17.1 0 Calma 9 Sudoeste 0 -- -- 76
2020-09-15 06:00:00 17.8 8 Sudoeste 9 Sudoeste 0 -- -- 74
2020-09-15 05:00:00 18.5 2 Sudoeste 10 Sur 0 -- -- 71
2020-09-15 04:00:00 19.4 4 Sur 23 Sudoeste 0 -- -- 65
2020-09-15 03:00:00 20.3 16 Sudoeste 22 Sudoeste 0 -- -- 60
2020-09-15 02:00:00 21.2 13 Sudoeste 18 Sudoeste 0 -- -- 54
2020-09-15 01:00:00 22.1 14 Sudoeste 19 Sudoeste 0 -- -- 50
2020-09-15 00:00:00 23.2 13 Sudoeste 20 Sudoeste 0 -- -- 48
2020-09-14 23:00:00 23.9 12 Sudoeste 19 Sudoeste 0 -- -- 47
2020-09-14 22:00:00 25.1 10 Sudoeste 19 Oeste 0 -- -- 45
2020-09-14 21:00:00 26.7 13 Oeste 24 Sudoeste 0 -- -- 42
2020-09-14 20:00:00 28.7 14 Sudoeste 30 Sudoeste 0 -- -- 38
2020-09-14 19:00:00 30.3 16 Sudoeste 33 Sudoeste 0 -- -- 32
2020-09-14 18:00:00 30.4 17 Sur 35 Sur 0 -- -- 33
2020-09-14 17:00:00 30.2 21 Sur 32 Sur 0 -- -- 34
2020-09-14 16:00:00 29.7 18 Sur 36 Sur 0 -- -- 38
2020-09-14 15:00:00 29.8 21 Sur 33 Sudeste 0 -- -- 37
2020-09-14 14:00:00 28.9 9 Sudeste 24 Este 0 -- -- 40
2020-09-14 13:00:00 29.2 11 Sudeste 24 Sudeste 0 -- -- 41
2020-09-14 12:00:00 27.3 9 Sudeste 18 Sudeste 0 -- -- 48
2020-09-14 11:00:00 26.3 8 Sur 14 Sudeste 0 -- -- 51
2020-09-14 10:00:00 23.4 2 Nordeste 6 Nordeste 0 -- -- 64
2020-09-14 09:00:00 21.4 0 Calma -- -- 0 -- -- 70
2020-09-14 08:00:00 21.1 5 Sur 7 Sur 0 -- -- 71
2020-09-14 07:00:00 21.8 2 Sudoeste 4 Norte 0 -- -- 66
2020-09-14 06:00:00 22.2 2 Oeste 10 Sudoeste 0 -- -- 65
2020-09-14 05:00:00 22.6 8 Sudoeste 16 Sudoeste 0 -- -- 64
2020-09-14 04:00:00 23.1 12 Sudoeste 17 Sudoeste 0 -- -- 59
2020-09-14 03:00:00 23.5 12 Sudoeste 17 Sudoeste 0 -- -- 53
2020-09-14 02:00:00 24.1 6 Sudoeste 9 Oeste 0 -- -- 45
2020-09-14 01:00:00 25.7 5 Sudoeste 24 Sudoeste 0 -- -- 38
2020-09-14 00:00:00 26.7 13 Sudoeste 19 Sudoeste 0 -- -- 36
2020-09-13 23:00:00 27.3 8 Oeste 25 Sudoeste 0 -- -- 33
2020-09-13 22:00:00 29.2 8 Sudoeste 22 Sudeste 0 -- -- 24
2020-09-13 21:00:00 30.6 9 Sudeste 23 Este 0 -- -- 23
2020-09-13 20:00:00 33.5 14 Sudeste 28 Este 0 -- -- 20
2020-09-13 19:00:00 34.4 18 Sudeste 35 Sudeste 0 -- -- 19
2020-09-13 18:00:00 35.6 21 Sudeste 32 Sudeste 0 -- -- 18
2020-09-13 17:00:00 34.7 15 Este 34 Este 0 -- -- 21
2020-09-13 16:00:00 33.9 17 Este 34 Este 0 -- -- 21
2020-09-13 15:00:00 33.6 15 Este 31 Este 0 -- -- 23
2020-09-13 14:00:00 31.6 19 Este 34 Sudeste 0 -- -- 25
2020-09-13 13:00:00 30.9 17 Sudeste 31 Este 0 -- -- 25
2020-09-13 12:00:00 30.4 21 Este 31 Este 0 -- -- 26
2020-09-13 11:00:00 28.3 21 Este 30 Este 0 -- -- 29
2020-09-13 10:00:00 23.3 6 Norte 8 Norte 0 -- -- 38
2020-09-13 09:00:00 21.9 2 Norte 13 Nordeste 0 -- -- 39
2020-09-13 08:00:00 21.7 9 Nordeste 14 Nordeste 0 -- -- 40
2020-09-13 07:00:00 22.1 4 Nordeste 14 Este 0 -- -- 39
2020-09-13 06:00:00 22.5 11 Este 16 Este 0 -- -- 38
2020-09-13 05:00:00 22.5 5 Nordeste 13 Este 0 -- -- 37
2020-09-13 04:00:00 23.8 6 Sudeste 15 Sudeste 0 -- -- 34
2020-09-13 03:00:00 24.7 5 Este 12 Nordeste 0 -- -- 32
2020-09-13 02:00:00 25.2 8 Este 15 Nordeste 0 -- -- 31
2020-09-13 01:00:00 25.8 2 Norte 6 Norte 0 -- -- 28
2020-09-13 00:00:00 26.6 2 Noroeste 4 Norte 0 -- -- 26
2020-09-12 23:00:00 28.2 0 Calma 10 Este 0 -- -- 24
2020-09-12 22:00:00 29.6 10 Este 12 Este 0 -- -- 23
2020-09-12 21:00:00 31 8 Nordeste 12 Nordeste 0 -- -- 21
2020-09-12 20:00:00 33.2 9 Nordeste 21 Nordeste 0 -- -- 19
2020-09-12 19:00:00 34.9 9 Nordeste 21 Este 0 -- -- 18
2020-09-12 18:00:00 35.2 11 Nordeste 23 Norte 0 -- -- 18
2020-09-12 17:00:00 36.4 7 Norte 22 Este 0 -- -- 18
2020-09-12 16:00:00 35.2 10 Este 20 Este 0 -- -- 18
2020-09-12 15:00:00 33.9 12 Sudeste 25 Sudeste 0 -- -- 18
2020-09-12 14:00:00 33.8 12 Nordeste 26 Nordeste 0 -- -- 20
2020-09-12 13:00:00 32.4 14 Nordeste 26 Este 0 -- -- 22
2020-09-12 12:00:00 30.3 13 Nordeste 23 Nordeste 0 -- -- 25
2020-09-12 11:00:00 27.2 12 Este 24 Este 0 -- -- 30
2020-09-12 10:00:00 24.6 12 Nordeste 18 Nordeste 0 -- -- 34
2020-09-12 09:00:00 20.9 5 Nordeste 9 Nordeste 0 -- -- 40
2020-09-12 08:00:00 20.2 4 Nordeste 10 Nordeste 0 -- -- 40
2020-09-12 07:00:00 21.1 6 Nordeste 10 Nordeste 0 -- -- 38
2020-09-12 06:00:00 20.3 4 Norte 9 Norte 0 -- -- 38
2020-09-12 05:00:00 22.2 6 Nordeste 10 Nordeste 0 -- -- 34
2020-09-12 04:00:00 21.6 0 Calma 5 Noroeste 0 -- -- 35
2020-09-12 03:00:00 22 3 Noroeste 5 Noroeste 0 -- -- 34
2020-09-12 02:00:00 22.4 2 Norte 12 Este 0 -- -- 32
2020-09-12 01:00:00 24.4 10 Sudeste 12 Sudeste 0 -- -- 28
2020-09-12 00:00:00 25.9 4 Noroeste 5 Norte 0 -- -- 25
2020-09-11 23:00:00 27.3 4 Norte 5 Noroeste 0 -- -- 22
2020-09-11 22:00:00 29.4 4 Nordeste 9 Nordeste 0 -- -- 20
2020-09-11 21:00:00 30.7 0 Calma 8 Sudeste 0 -- -- 18
2020-09-11 20:00:00 33.2 6 Sur 12 Sudeste 0 -- -- 16
2020-09-11 19:00:00 34.1 3 Este 13 Norte 0 -- -- 15
2020-09-11 18:00:00 34.7 8 Norte 21 Nordeste 0 -- -- 15
2020-09-11 17:00:00 35.6 11 Sudoeste 21 Sudoeste 0 -- -- 15
2020-09-11 16:00:00 33.9 6 Sur 18 Sudeste 0 -- -- 17
2020-09-11 15:00:00 34.1 7 Sur 18 Sudeste 0 -- -- 18
2020-09-11 14:00:00 33.4 7 Sudeste 24 Nordeste 0 -- -- 21
2020-09-11 13:00:00 31.3 11 Este 21 Este 0 -- -- 23
2020-09-11 12:00:00 29 10 Nordeste 23 Nordeste 0 -- -- 26
2020-09-11 11:00:00 26.3 14 Nordeste 25 Nordeste 0 -- -- 30
2020-09-11 10:00:00 23.8 13 Nordeste 23 Nordeste 0 -- -- 34
2020-09-11 09:00:00 20.6 7 Este 13 Este 0 -- -- 39
2020-09-11 08:00:00 18.9 3 Norte 14 Este 0 -- -- 39
2020-09-11 07:00:00 19.3 6 Este 11 Este 0 -- -- 38
2020-09-11 06:00:00 19.3 0 Calma 7 Este 0 -- -- 36
2020-09-11 05:00:00 21.2 5 Este 10 Este 0 -- -- 34
2020-09-11 04:00:00 22.3 6 Este 8 Este 0 -- -- 32
2020-09-11 03:00:00 23.6 0 Calma 7 Nordeste 0 -- -- 29
2020-09-11 02:00:00 24.9 6 Nordeste 9 Este 0 -- -- 28
2020-09-11 01:00:00 25.8 5 Norte 8 Norte 0 -- -- 25
2020-09-11 00:00:00 24.1 5 Oeste 21 Sudoeste 0 -- -- 26
2020-09-10 23:00:00 26.8 3 Oeste 10 Sur 0 -- -- 22
2020-09-10 22:00:00 28.1 8 Sur 12 Sur 0 -- -- 21
2020-09-10 21:00:00 29.1 10 Sur 12 Sudoeste 0 -- -- 20
2020-09-10 20:00:00 32.8 6 Sudoeste 13 Este 0 -- -- 17
2020-09-10 19:00:00 34 7 Sur 16 Sur 0 -- -- 16
2020-09-10 18:00:00 34.4 11 Sur 19 Norte 0 -- -- 16
2020-09-10 17:00:00 34.1 8 Noroeste 19 Noroeste 0 -- -- 16
2020-09-10 16:00:00 33.7 8 Nordeste 21 Este 0 -- -- 17
2020-09-10 15:00:00 33.1 9 Este 15 Este 0 -- -- 19
2020-09-10 14:00:00 32.1 9 Este 18 Este 0 -- -- 22
2020-09-10 13:00:00 30.4 9 Nordeste 21 Este 0 -- -- 24
2020-09-10 12:00:00 27.5 10 Nordeste 18 Nordeste 0 -- -- 29
2020-09-10 11:00:00 25.3 6 Nordeste 14 Nordeste 0 -- -- 30
2020-09-10 10:00:00 21.7 5 Norte 8 Norte 0 -- -- 36
2020-09-10 09:00:00 18.5 2 Nordeste 6 Este 0 -- -- 41
2020-09-10 08:00:00 17.6 4 Nordeste 6 Nordeste 0 -- -- 40
2020-09-10 07:00:00 16.6 3 Oeste 8 Nordeste 0 -- -- 41
2020-09-10 06:00:00 18.5 4 Nordeste 6 Nordeste 0 -- -- 39
2020-09-10 05:00:00 19.2 2 Noroeste 3 Noroeste 0 -- -- 37
2020-09-10 04:00:00 20.6 0 Calma 13 Este 0 -- -- 35
2020-09-10 03:00:00 20.3 8 Este 10 Este 0 -- -- 33
2020-09-10 02:00:00 22.3 3 Oeste 6 Noroeste 0 -- -- 30
2020-09-10 01:00:00 22.8 3 Oeste 17 Noroeste 0 -- -- 29
2020-09-10 00:00:00 23.7 5 Noroeste 9 Oeste 0 -- -- 26
2020-09-09 23:00:00 25.4 3 Noroeste 11 Sur 0 -- -- 23
2020-09-09 22:00:00 26.7 9 Sur 13 Sur 0 -- -- 21
2020-09-09 21:00:00 28.2 9 Sudeste 11 Sudeste 0 -- -- 20
2020-09-09 20:00:00 30.9 6 Sudeste 9 Sudeste 0 -- -- 17
2020-09-09 19:00:00 32.7 5 Sudoeste 15 Sudeste 0 -- -- 16
2020-09-09 18:00:00 32.5 8 Sudeste 19 Este 0 -- -- 17
2020-09-09 17:00:00 32.8 4 Norte 15 Norte 0 -- -- 18
2020-09-09 16:00:00 31.6 8 Sudeste 18 Este 0 -- -- 20
2020-09-09 15:00:00 31.3 5 Este 18 Este 0 -- -- 20
2020-09-09 14:00:00 30 9 Norte 20 Nordeste 0 -- -- 24
2020-09-09 13:00:00 28.9 6 Este 19 Este 0 -- -- 28
2020-09-09 12:00:00 26.6 9 Nordeste 19 Sudeste 0 -- -- 32
2020-09-09 11:00:00 24 6 Este 16 Este 0 -- -- 35
2020-09-09 10:00:00 21.5 8 Nordeste 20 Nordeste 0 -- -- 39
2020-09-09 09:00:00 18.8 11 Nordeste 17 Nordeste 0 -- -- 43
2020-09-09 08:00:00 17 2 Este 12 Nordeste 0 -- -- 46
2020-09-09 07:00:00 17.5 5 Nordeste 14 Norte 0 -- -- 43
2020-09-09 06:00:00 17.4 2 Norte 10 Este 0 -- -- 43
2020-09-09 05:00:00 18.2 5 Este 7 Este 0 -- -- 42
2020-09-09 04:00:00 19.1 2 Norte 4 Norte 0 -- -- 39
2020-09-09 03:00:00 19.5 4 Norte 5 Norte 0 -- -- 39
2020-09-09 02:00:00 20.4 4 Noroeste 6 Norte 0 -- -- 37
2020-09-09 01:00:00 20.7 4 Norte 6 Norte 0 -- -- 38
2020-09-09 00:00:00 20.9 2 Noroeste 5 Norte 0 -- -- 37
2020-09-08 23:00:00 22.6 2 Nordeste 13 Nordeste 0 -- -- 34
2020-09-08 22:00:00 24.4 10 Nordeste 15 Nordeste 0 -- -- 31
2020-09-08 21:00:00 25.5 7 Nordeste 13 Nordeste 0 -- -- 26
2020-09-08 20:00:00 27.5 9 Nordeste 18 Nordeste 0 -- -- 23
2020-09-08 19:00:00 28.9 11 Nordeste 26 Nordeste 0 -- -- 20
2020-09-08 18:00:00 29.5 12 Nordeste 29 Norte 0 -- -- 20
2020-09-08 17:00:00 29.3 14 Nordeste 28 Nordeste 0 -- -- 23
2020-09-08 16:00:00 29.1 14 Nordeste 35 Nordeste 0 -- -- 23
2020-09-08 15:00:00 27.8 15 Nordeste 28 Nordeste 0 -- -- 25
2020-09-08 14:00:00 27.2 16 Nordeste 32 Nordeste 0 -- -- 26
2020-09-08 13:00:00 25.8 17 Nordeste 39 Nordeste 0 -- -- 32
2020-09-08 12:00:00 23.7 20 Nordeste 42 Nordeste 0 -- -- 37
2020-09-08 11:00:00 21.4 20 Nordeste 34 Nordeste 0 -- -- 38
2020-09-08 10:00:00 19.7 22 Nordeste 41 Nordeste 0 -- -- 37
2020-09-08 09:00:00 18.8 14 Nordeste 30 Nordeste 0 -- -- 37
2020-09-08 08:00:00 18 14 Nordeste 24 Nordeste 0 -- -- 38
2020-09-08 07:00:00 18.8 14 Nordeste 27 Nordeste 0 -- -- 35
2020-09-08 06:00:00 19.5 13 Nordeste 28 Nordeste 0 -- -- 34
2020-09-08 05:00:00 19.9 11 Nordeste 25 Nordeste 0 -- -- 34
2020-09-08 04:00:00 21.3 15 Nordeste 30 Nordeste 0 -- -- 31
2020-09-08 03:00:00 21.8 17 Nordeste 27 Nordeste 0 -- -- 30
2020-09-08 02:00:00 22.2 14 Nordeste 21 Nordeste 0 -- -- 30
2020-09-08 01:00:00 22.5 9 Nordeste 30 Nordeste 0 -- -- 29
2020-09-08 00:00:00 23.6 19 Nordeste 30 Nordeste 0 -- -- 27
2020-09-07 23:00:00 24.3 15 Norte 24 Nordeste 0 -- -- 25
2020-09-07 22:00:00 25.2 13 Norte 24 Norte 0 -- -- 24
2020-09-07 21:00:00 27.3 16 Norte 29 Norte 0 -- -- 22
2020-09-07 20:00:00 30.1 19 Norte 27 Norte 0 -- -- 19
2020-09-07 19:00:00 31.8 15 Norte 28 Norte 0 -- -- 20
2020-09-07 18:00:00 32.3 16 Norte 28 Norte 0 -- -- 20
2020-09-07 17:00:00 32.4 12 Norte 28 Norte 0 -- -- 20
2020-09-07 16:00:00 32 15 Norte 27 Norte 0 -- -- 21
2020-09-07 15:00:00 31 15 Norte 27 Norte 0 -- -- 23
2020-09-07 14:00:00 30.3 15 Norte 30 Norte 0 -- -- 23
2020-09-07 13:00:00 28.4 14 Norte 28 Norte 0 -- -- 25
2020-09-07 12:00:00 25.8 13 Norte 23 Nordeste 0 -- -- 29
2020-09-07 11:00:00 24.1 15 Norte 30 Norte 0 -- -- 33
2020-09-07 10:00:00 21.8 17 Norte 29 Norte 0 -- -- 38
2020-09-07 09:00:00 20 16 Norte 25 Nordeste 0 -- -- 42
2020-09-07 08:00:00 19.7 10 Norte 19 Nordeste 0 -- -- 43
2020-09-07 07:00:00 20.7 9 Norte 23 Norte 0 -- -- 42
2020-09-07 06:00:00 21.9 9 Nordeste 17 Nordeste 0 -- -- 41
2020-09-07 05:00:00 23.4 6 Este 10 Norte 0 -- -- 40
2020-09-07 04:00:00 23.4 4 Noroeste 6 Noroeste 0 -- -- 38
2020-09-07 03:00:00 24.9 3 Oeste 11 Nordeste 0 -- -- 36
2020-09-07 02:00:00 26.3 8 Nordeste 11 Norte 0 -- -- 34
2020-09-07 01:00:00 26.9 7 Norte 19 Nordeste 0 -- -- 31
2020-09-07 00:00:00 28.2 6 Nordeste 13 Nordeste 0 -- -- 27
2020-09-06 23:00:00 29 6 Norte 11 Norte 0 -- -- 26
2020-09-06 22:00:00 31.1 4 Norte 11 Nordeste 0 -- -- 24
2020-09-06 21:00:00 32.3 8 Sudoeste 13 Sudoeste 0 -- -- 22
2020-09-06 20:00:00 34.9 6 Oeste 14 Sudoeste 0 -- -- 19
2020-09-06 19:00:00 35.7 10 Norte 17 Nordeste 0 -- -- 19
2020-09-06 18:00:00 36.4 5 Este 17 Sudoeste 0 -- -- 17
2020-09-06 17:00:00 35.7 9 Norte 15 Norte 0 -- -- 19
2020-09-06 16:00:00 35.6 5 Sudoeste 15 Noroeste 0 -- -- 20
2020-09-06 15:00:00 33.9 7 Noroeste 15 Noroeste 0 -- -- 24
2020-09-06 14:00:00 32.2 6 Nordeste 21 Nordeste 0 -- -- 28
2020-09-06 13:00:00 30.4 9 Nordeste 23 Norte 0 -- -- 30
2020-09-06 12:00:00 28.3 15 Nordeste 24 Nordeste 0 -- -- 34
2020-09-06 11:00:00 26.6 12 Nordeste 24 Nordeste 0 -- -- 37
2020-09-06 10:00:00 24.4 11 Norte 15 Norte 0 -- -- 42
2020-09-06 09:00:00 21.9 7 Nordeste 13 Nordeste 0 -- -- 47
2020-09-06 08:00:00 20.9 11 Norte 17 Norte 0 -- -- 46
2020-09-06 07:00:00 22 9 Norte 23 Nordeste 0 -- -- 42
2020-09-06 06:00:00 23.8 8 Nordeste 15 Nordeste 0 -- -- 38
2020-09-06 05:00:00 23.8 9 Nordeste 13 Nordeste 0 -- -- 36
2020-09-06 04:00:00 25.1 8 Nordeste 10 Norte 0 -- -- 34
2020-09-06 03:00:00 25.7 6 Norte 9 Norte 0 -- -- 33
2020-09-06 02:00:00 26.8 8 Norte 16 Noroeste 0 -- -- 31
2020-09-06 01:00:00 26.9 6 Noroeste 12 Noroeste 0 -- -- 29
2020-09-06 00:00:00 27 6 Noroeste 9 Noroeste 0 -- -- 27
2020-09-05 23:00:00 28.2 5 Norte 12 Sudoeste 0 -- -- 24
2020-09-05 22:00:00 30.6 8 Sudoeste 12 Sudoeste 0 -- -- 21
2020-09-05 21:00:00 31.5 8 Sur 12 Sur 0 -- -- 21
2020-09-05 20:00:00 34.6 3 Norte 15 Sudeste 0 -- -- 18
2020-09-05 19:00:00 36.9 6 Sudoeste 18 Sudeste 0 -- -- 16
2020-09-05 18:00:00 36.7 6 Nordeste 18 Sur 0 -- -- 17
2020-09-05 17:00:00 36.6 12 Sudeste 24 Sudoeste 0 -- -- 17
2020-09-05 16:00:00 36.2 10 Sudeste 18 Este 0 -- -- 17
2020-09-05 15:00:00 35.4 8 Sudeste 18 Este 0 -- -- 20
2020-09-05 14:00:00 33.7 8 Este 17 Este 0 -- -- 21
2020-09-05 13:00:00 32.4 8 Este 21 Nordeste 0 -- -- 24
2020-09-05 12:00:00 30.3 10 Nordeste 18 Nordeste 0 -- -- 29
2020-09-05 11:00:00 27.9 8 Nordeste 19 Nordeste 0 -- -- 31
2020-09-05 10:00:00 25.9 10 Nordeste 26 Nordeste 0 -- -- 33
2020-09-05 09:00:00 24.3 16 Nordeste 26 Nordeste 0 -- -- 33
2020-09-05 08:00:00 21.1 3 Norte 13 Sudeste 0 -- -- 39
2020-09-05 07:00:00 22.3 12 Sudeste 13 Sudeste 0 -- -- 37
2020-09-05 06:00:00 24.6 7 Nordeste 16 Nordeste 0 -- -- 31
2020-09-05 05:00:00 24.8 10 Nordeste 14 Nordeste 0 -- -- 31
2020-09-05 04:00:00 24.1 6 Norte 13 Norte 0 -- -- 34
2020-09-05 03:00:00 25.2 8 Nordeste 9 Nordeste 0 -- -- 33
2020-09-05 02:00:00 24.7 6 Este 15 Norte 0 -- -- 30
2020-09-05 01:00:00 26.3 8 Norte 14 Norte 0 -- -- 31
2020-09-05 00:00:00 25.4 6 Noroeste 14 Noroeste 0 -- -- 26
2020-09-04 23:00:00 28 2 Oeste 7 Nordeste 0 -- -- 23
2020-09-04 22:00:00 29.9 4 Nordeste 9 Nordeste 0 -- -- 20
2020-09-04 21:00:00 31.7 4 Nordeste 6 Este 0 -- -- 19
2020-09-04 20:00:00 34.1 4 Este 13 Sur 0 -- -- 18
2020-09-04 19:00:00 35.8 4 Sudoeste 16 Este 0 -- -- 16
2020-09-04 18:00:00 36.2 6 Sur 19 Sur 0 -- -- 17
2020-09-04 17:00:00 36.6 6 Sur 19 Sudeste 0 -- -- 17
2020-09-04 16:00:00 35.7 9 Sudeste 17 Sudeste 0 -- -- 18
2020-09-04 15:00:00 34.6 9 Sudeste 21 Sudeste 0 -- -- 20
2020-09-04 14:00:00 33.5 9 Sudeste 40 Este 0 -- -- 22
2020-09-04 13:00:00 31.4 8 Sudeste 17 Este 0 -- -- 24
2020-09-04 12:00:00 29.4 8 Este 17 Este 0 -- -- 26
2020-09-04 11:00:00 26.5 10 Nordeste 20 Norte 0 -- -- 30
2020-09-04 10:00:00 24.1 7 Nordeste 14 Este 0 -- -- 32
2020-09-04 09:00:00 20.8 10 Este 13 Este 0 -- -- 37
2020-09-04 08:00:00 19.9 9 Nordeste 13 Este 0 -- -- 37
2020-09-04 07:00:00 20 11 Este 17 Nordeste 0 -- -- 36
2020-09-04 06:00:00 20.6 8 Este 14 Este 0 -- -- 35
2020-09-04 05:00:00 20.8 4 Norte 10 Nordeste 0 -- -- 35
2020-09-04 04:00:00 22 4 Sudeste 25 Sudeste 0 -- -- 33
2020-09-04 03:00:00 22.5 3 Norte 5 Norte 0 -- -- 28
2020-09-04 02:00:00 23.3 3 Norte 9 Este 0 -- -- 28
2020-09-04 01:00:00 24.6 0 Calma 25 Sudeste 0 -- -- 27
2020-09-04 00:00:00 26.1 3 Noroeste 8 Nordeste 0 -- -- 22
2020-09-03 23:00:00 28.9 7 Nordeste 10 Nordeste 0 -- -- 19
2020-09-03 22:00:00 29.8 5 Nordeste 9 Nordeste 0 -- -- 18
2020-09-03 21:00:00 31.4 3 Sudeste 9 Sudeste 0 -- -- 16
2020-09-03 20:00:00 33.7 6 Sudeste 16 Sur 0 -- -- 15
2020-09-03 19:00:00 35.2 7 Sur 17 Este 0 -- -- 14
2020-09-03 18:00:00 35.3 7 Sudeste 20 Sudeste 0 -- -- 14
2020-09-03 17:00:00 35.7 8 Sur 21 Sudeste 0 -- -- 14
2020-09-03 16:00:00 34.8 7 Norte 18 Nordeste 0 -- -- 15
2020-09-03 15:00:00 34.4 6 Este 17 Nordeste 0 -- -- 15
2020-09-03 14:00:00 33.3 5 Norte 17 Nordeste 0 -- -- 18
2020-09-03 13:00:00 30.8 9 Nordeste 18 Nordeste 0 -- -- 21
2020-09-03 12:00:00 29 7 Nordeste 23 Este 0 -- -- 22
2020-09-03 11:00:00 25.5 15 Nordeste 28 Nordeste 0 -- -- 27
2020-09-03 10:00:00 23.7 12 Nordeste 18 Nordeste 0 -- -- 29
2020-09-03 09:00:00 19.8 8 Nordeste 11 Nordeste 0 -- -- 35
2020-09-03 08:00:00 20.1 9 Nordeste 12 Nordeste 0 -- -- 34
2020-09-03 07:00:00 19.5 2 Este 12 Este 0 -- -- 34
2020-09-03 06:00:00 20.4 4 Sudeste 9 Nordeste 0 -- -- 32
2020-09-03 05:00:00 21.7 7 Nordeste 13 Nordeste 0 -- -- 29
2020-09-03 04:00:00 22.1 9 Este 12 Nordeste 0 -- -- 29
2020-09-03 03:00:00 23.8 9 Nordeste 18 Nordeste 0 -- -- 25
2020-09-03 02:00:00 22.8 5 Norte 10 Nordeste 0 -- -- 25
2020-09-03 01:00:00 23.9 8 Nordeste 10 Norte 0 -- -- 24
2020-09-03 00:00:00 24.4 4 Noroeste 6 Noroeste 0 -- -- 22
2020-09-02 23:00:00 25.7 4 Noroeste 4 Noroeste 0 -- -- 18
2020-09-02 22:00:00 28.5 -- -- -- -- 0 -- -- 15
2020-09-02 21:00:00 29.4 3 Sudeste 8 Este 0 -- -- 15
2020-09-02 20:00:00 31.3 4 Nordeste 15 Nordeste 0 -- -- 14
2020-09-02 19:00:00 32.8 6 Nordeste 14 Nordeste 0 -- -- 14
2020-09-02 18:00:00 33.9 5 Noroeste 22 Sudeste 0 -- -- 14
2020-09-02 17:00:00 33.3 5 Oeste 23 Norte 0 -- -- 15
2020-09-02 16:00:00 33 9 Sudoeste 24 Norte 0 -- -- 15
2020-09-02 15:00:00 31.6 13 Nordeste 23 Nordeste 0 -- -- 17
2020-09-02 14:00:00 30.3 12 Nordeste 24 Nordeste 0 -- -- 20
2020-09-02 13:00:00 28.1 9 Nordeste 23 Norte 0 -- -- 23
2020-09-02 12:00:00 26 13 Nordeste 30 Nordeste 0 -- -- 26
2020-09-02 11:00:00 24.6 15 Nordeste 28 Nordeste 0 -- -- 26
2020-09-02 10:00:00 22.4 18 Nordeste 28 Nordeste 0 -- -- 30
2020-09-02 09:00:00 20.5 17 Nordeste 28 Nordeste 0 -- -- 33
2020-09-02 08:00:00 17.8 8 Nordeste 17 Nordeste 0 -- -- 49
2020-09-02 07:00:00 18.4 9 Nordeste 14 Nordeste 0 -- -- 50
2020-09-02 06:00:00 18.5 4 Este 6 Norte 0 -- -- 50
2020-09-02 05:00:00 18.9 0 Calma 8 Norte 0 -- -- 49
2020-09-02 04:00:00 20 5 Norte 9 Norte 0 -- -- 46
2020-09-02 03:00:00 19.9 3 Norte 8 Noroeste 0 -- -- 45
2020-09-02 02:00:00 20.3 4 Norte 6 Norte 0 -- -- 45
2020-09-02 01:00:00 21.2 3 Sudoeste 9 Sudoeste 0 -- -- 42
2020-09-02 00:00:00 23.8 8 Noroeste 14 Noroeste 0 -- -- 36
2020-09-01 23:00:00 24.5 7 Noroeste 15 Noroeste 0 -- -- 31
2020-09-01 22:00:00 25.6 2 Sudeste 10 Nordeste 0 -- -- 22
2020-09-01 21:00:00 28.1 8 Este 16 Norte 0 -- -- 18
2020-09-01 20:00:00 30.7 5 Oeste 20 Oeste 0 -- -- 17
2020-09-01 19:00:00 32.3 9 Oeste 24 Noroeste 0 -- -- 16
2020-09-01 18:00:00 32.1 11 Noroeste 25 Sudoeste 0 -- -- 16
2020-09-01 17:00:00 32.3 4 Sudeste 22 Sudoeste 0 -- -- 15
2020-09-01 16:00:00 32.7 9 Noroeste 21 Noroeste 0 -- -- 14
2020-09-01 15:00:00 31.1 4 Sudoeste 15 Nordeste 0 -- -- 15
2020-09-01 14:00:00 30.1 6 Noroeste 14 Norte 0 -- -- 16
2020-09-01 13:00:00 28.5 6 Norte 20 Norte 0 -- -- 19
2020-09-01 12:00:00 26.4 4 Norte 8 Nordeste 0 -- -- 21
2020-09-01 11:00:00 23.5 4 Noroeste 7 Noroeste 0 -- -- 26
2020-09-01 10:00:00 20.1 4 Noroeste 6 Noroeste 0 -- -- 32
2020-09-01 09:00:00 17.3 0 Calma 6 Noroeste 0 -- -- 38
2020-09-01 08:00:00 16.5 5 Norte 8 Norte 0 -- -- 38
2020-09-01 07:00:00 18 7 Sudeste 14 Este 0 -- -- 36
2020-09-01 06:00:00 18.5 4 Norte 8 Sur 0 -- -- 33
2020-09-01 05:00:00 19.1 5 Sur 12 Sudoeste 0 -- -- 32
2020-09-01 04:00:00 19.4 3 Este 10 Este 0 -- -- 32
2020-09-01 03:00:00 19.7 10 Este 14 Este 0 -- -- 32
2020-09-01 02:00:00 20.1 3 Noroeste 5 Norte 0 -- -- 29
2020-09-01 01:00:00 20.2 3 Norte 5 Norte 0 -- -- 29
2020-09-01 00:00:00 20.5 3 Noroeste 7 Noroeste 0 -- -- 28
2020-08-31 23:00:00 22.8 5 Este 10 Sudeste 0 -- -- 23
2020-08-31 22:00:00 23.4 8 Sudeste 10 Este 0 -- -- 23
2020-08-31 21:00:00 25.6 9 Este 12 Este 0 -- -- 21
2020-08-31 20:00:00 28.7 6 Sudoeste 11 Sudoeste 0 -- -- 16
2020-08-31 19:00:00 29.6 5 Noroeste 13 Sur 0 -- -- 16
2020-08-31 18:00:00 30 6 Sudoeste 17 Sudoeste 0 -- -- 16
2020-08-31 17:00:00 29.4 7 Noroeste 30 Noroeste 0 -- -- 16
2020-08-31 16:00:00 29.6 8 Norte 16 Norte 0 -- -- 16
2020-08-31 15:00:00 28.6 6 Sudeste 15 Sur 0 -- -- 17
2020-08-31 14:00:00 27.7 5 Sudeste 17 Sudeste 0 -- -- 20
2020-08-31 13:00:00 25.6 5 Este 19 Este 0 -- -- 23
2020-08-31 12:00:00 24.5 9 Este 21 Este 0 -- -- 27
2020-08-31 11:00:00 22.2 12 Nordeste 22 Este 0 -- -- 30
2020-08-31 10:00:00 19.4 16 Nordeste 28 Nordeste 0 -- -- 35
2020-08-31 09:00:00 17.4 9 Nordeste 17 Nordeste 0 -- -- 38
2020-08-31 08:00:00 15.5 7 Nordeste 15 Nordeste 0 -- -- 40
2020-08-31 07:00:00 16.3 9 Nordeste 16 Nordeste 0 -- -- 37
2020-08-31 06:00:00 15.8 4 Norte 12 Nordeste 0 -- -- 37
2020-08-31 05:00:00 16.5 5 Nordeste 8 Nordeste 0 -- -- 35
2020-08-31 04:00:00 16.6 3 Nordeste 15 Norte 0 -- -- 34
2020-08-31 03:00:00 17.2 8 Norte 15 Norte 0 -- -- 33
2020-08-31 02:00:00 18.3 10 Nordeste 23 Nordeste 0 -- -- 32
2020-08-31 01:00:00 19.5 11 Nordeste 27 Nordeste 0 -- -- 30
2020-08-31 00:00:00 19.9 10 Nordeste 21 Nordeste 0 -- -- 28
2020-08-30 23:00:00 20.4 10 Norte 21 Norte 0 -- -- 27
2020-08-30 22:00:00 21.9 13 Norte 19 Norte 0 -- -- 23
2020-08-30 21:00:00 23.8 13 Norte 24 Norte 0 -- -- 20
2020-08-30 20:00:00 26 11 Norte 21 Norte 0 -- -- 19
2020-08-30 19:00:00 28.4 7 Sudoeste 15 Sudoeste 0 -- -- 19
2020-08-30 18:00:00 27.5 11 Este 18 Sudeste 0 -- -- 20
2020-08-30 17:00:00 26.9 8 Sur 19 Nordeste 0 -- -- 20
2020-08-30 16:00:00 27.1 4 Noroeste 19 Norte 0 -- -- 20
2020-08-30 15:00:00 25.4 6 Noroeste 26 Sudeste 0 -- -- 25
2020-08-30 14:00:00 25.3 5 Sudeste 22 Este 0 -- -- 28
2020-08-30 13:00:00 23.7 9 Este 27 Nordeste 0 -- -- 30
2020-08-30 12:00:00 22.4 13 Nordeste 31 Nordeste 0 -- -- 34
2020-08-30 11:00:00 20.2 19 Nordeste 33 Nordeste 0 -- -- 37
2020-08-30 10:00:00 18.6 13 Nordeste 25 Nordeste 0 -- -- 41
2020-08-30 09:00:00 15.9 13 Norte 22 Norte 0 -- -- 49
2020-08-30 08:00:00 13.1 6 Noroeste 9 Noroeste 0 -- -- 55
2020-08-30 07:00:00 13.6 4 Noroeste 8 Noroeste 0 -- -- 54
2020-08-30 06:00:00 14.4 8 Noroeste 11 Noroeste 0 -- -- 52
2020-08-30 05:00:00 15.6 4 Noroeste 10 Norte 0 -- -- 49
2020-08-30 04:00:00 16.7 8 Norte 15 Norte 0 -- -- 46
2020-08-30 03:00:00 17.7 10 Norte 30 Norte 0 -- -- 44
2020-08-30 02:00:00 18.3 17 Norte 31 Norte 0 -- -- 42
2020-08-30 01:00:00 18.8 14 Norte 29 Noroeste 0 -- -- 41
2020-08-30 00:00:00 19.8 17 Norte 28 Noroeste 0 -- -- 37
2020-08-29 23:00:00 20.8 17 Noroeste 29 Noroeste 0 -- -- 33
2020-08-29 22:00:00 21.7 15 Noroeste 24 Noroeste 0 -- -- 32
2020-08-29 21:00:00 23.3 18 Noroeste 36 Noroeste 0 -- -- 30
2020-08-29 20:00:00 24.8 22 Noroeste 43 Noroeste 0 -- -- 27
2020-08-29 19:00:00 26.3 21 Noroeste 38 Noroeste 0 -- -- 24
2020-08-29 18:00:00 26.8 23 Noroeste 44 Noroeste 0 -- -- 23
2020-08-29 17:00:00 27 21 Norte 42 Noroeste 0 -- -- 23
2020-08-29 16:00:00 25.8 16 Norte 46 Norte 0 -- -- 25
2020-08-29 15:00:00 25.2 22 Norte 37 Norte 0 -- -- 28
2020-08-29 14:00:00 24.4 24 Noroeste 45 Nordeste 0 -- -- 31
2020-08-29 13:00:00 23.2 21 Noroeste 51 Norte 0 -- -- 33
2020-08-29 12:00:00 21.7 20 Noroeste 37 Norte 0 -- -- 38
2020-08-29 11:00:00 19.8 20 Norte 41 Noroeste 0 -- -- 42
2020-08-29 10:00:00 17.6 25 Noroeste 40 Noroeste 0 -- -- 50
2020-08-29 09:00:00 15.9 23 Noroeste 35 Norte 0 -- -- 54
2020-08-29 08:00:00 14.6 24 Noroeste 35 Noroeste 0 -- -- 55
2020-08-29 07:00:00 14.8 22 Noroeste 33 Noroeste 0 -- -- 52
2020-08-29 06:00:00 15.2 13 Norte 33 Noroeste 0 -- -- 48
2020-08-29 05:00:00 16 23 Noroeste 34 Noroeste 0 -- -- 47
2020-08-29 04:00:00 16.9 25 Noroeste 42 Noroeste 0 -- -- 44
2020-08-29 03:00:00 17.6 27 Noroeste 39 Noroeste 0 -- -- 45
2020-08-29 02:00:00 18.1 20 Noroeste 35 Noroeste 0 -- -- 48
2020-08-29 01:00:00 19.1 24 Noroeste 39 Noroeste 0 -- -- 47
2020-08-29 00:00:00 20 22 Noroeste 37 Noroeste 0 -- -- 46
2020-08-28 23:00:00 21 21 Noroeste 40 Noroeste 0 -- -- 46
2020-08-28 22:00:00 22.6 21 Noroeste 37 Oeste 0 -- -- 38
2020-08-28 21:00:00 24.9 24 Noroeste 41 Noroeste 0 -- -- 26
2020-08-28 20:00:00 27.8 23 Noroeste 39 Noroeste 0 -- -- 21
2020-08-28 19:00:00 30.3 23 Noroeste 36 Noroeste 0 -- -- 18
2020-08-28 18:00:00 31.8 21 Noroeste 38 Sudoeste 0 -- -- 17
2020-08-28 17:00:00 32.6 13 Oeste 41 Sudoeste 0 -- -- 16
2020-08-28 16:00:00 32.1 16 Oeste 32 Sudoeste 0 -- -- 20
2020-08-28 15:00:00 31.2 15 Oeste 31 Noroeste 0 -- -- 27
2020-08-28 14:00:00 29.6 17 Noroeste 39 Noroeste 0 -- -- 24
2020-08-28 13:00:00 29.3 18 Noroeste 49 Noroeste 0 -- -- 26
2020-08-28 12:00:00 27.9 24 Noroeste 37 Noroeste 0 -- -- 31
2020-08-28 11:00:00 26 27 Noroeste 40 Noroeste 0 -- -- 42
2020-08-28 10:00:00 24.5 21 Noroeste 38 Noroeste 0 -- -- 50
2020-08-28 09:00:00 21.8 6 Noroeste 19 Oeste 0 -- -- 62
2020-08-28 08:00:00 19.7 6 Sudoeste 12 Oeste 0 -- -- 63
2020-08-28 07:00:00 19.8 3 Sur 11 Oeste 0 -- -- 59
2020-08-28 06:00:00 21.5 8 Sudoeste 31 Norte 0 -- -- 54
2020-08-28 05:00:00 23 18 Noroeste 29 Noroeste 0 -- -- 52
2020-08-28 04:00:00 22.8 11 Noroeste 18 Oeste 0 -- -- 53
2020-08-28 03:00:00 22.9 9 Oeste 13 Sudoeste 0 -- -- 55
2020-08-28 02:00:00 24.8 7 Sudoeste 12 Oeste 0 -- -- 49
2020-08-28 01:00:00 26.6 6 Noroeste 16 Noroeste 0 -- -- 44
2020-08-28 00:00:00 27.3 11 Oeste 26 Oeste 0 -- -- 42
2020-08-27 23:00:00 28.6 12 Noroeste 28 Noroeste 0 -- -- 40
2020-08-27 22:00:00 29.9 14 Noroeste 37 Noroeste 0 -- -- 38
2020-08-27 21:00:00 32.1 23 Noroeste 39 Noroeste 0 -- -- 33
2020-08-27 20:00:00 35.6 13 Oeste 31 Sudoeste 0 -- -- 25
2020-08-27 19:00:00 37.5 18 Sudoeste 36 Oeste 0 -- -- 22
2020-08-27 18:00:00 38.1 15 Oeste 35 Sudoeste 0 -- -- 21
2020-08-27 17:00:00 37.9 6 Sudoeste 28 Oeste 0 -- -- 23
2020-08-27 16:00:00 37.4 9 Sudoeste 22 Sudoeste 0 -- -- 26
2020-08-27 15:00:00 36.6 8 Sudoeste 21 Sur 0 -- -- 27
2020-08-27 14:00:00 35.4 9 Oeste 17 Noroeste 0 -- -- 26
2020-08-27 13:00:00 34 6 Noroeste -- -- -- -- -- 34
2020-08-27 12:00:00 33 5 Norte 13 Nordeste 0 -- -- 39
2020-08-27 11:00:00 29.3 5 Oeste 10 Noroeste 0 -- -- 47
2020-08-27 10:00:00 25.9 2 Nordeste 6 Sur 0 -- -- 56
2020-08-27 09:00:00 21.6 2 Sur 8 Oeste 0 -- -- 69
2020-08-27 08:00:00 20.3 5 Oeste 8 Sudoeste 0 -- -- 70
2020-08-27 07:00:00 21 4 Sudoeste 9 Sudoeste 0 -- -- 68
2020-08-27 06:00:00 21.9 5 Sudoeste 10 Sudoeste 0 -- -- 64
2020-08-27 05:00:00 22.9 3 Oeste 18 Sudoeste 0 -- -- 59
2020-08-27 04:00:00 24.1 12 Sudoeste 18 Sur 0 -- -- 54
2020-08-27 03:00:00 25.4 8 Sur 13 Sur 0 -- -- 52
2020-08-27 02:00:00 26.3 3 Sudoeste 6 Oeste 0 -- -- 48
2020-08-27 01:00:00 27.3 4 Oeste 9 Oeste 0 -- -- 44
2020-08-27 00:00:00 28.2 8 Sudoeste 24 Sudoeste 0 -- -- 40
2020-08-26 23:00:00 29.9 16 Sudoeste 27 Sudoeste 0 -- -- 38
2020-08-26 22:00:00 31.9 20 Sudoeste 37 Sudoeste 0 -- -- 29
2020-08-26 21:00:00 34.6 12 Sudoeste 15 Sudoeste 0 -- -- 18
2020-08-26 20:00:00 37.2 10 Sudoeste 26 Oeste 0 -- -- 15
2020-08-26 19:00:00 38.5 14 Sudoeste 22 Sudoeste 0 -- -- 12
2020-08-26 18:00:00 38.9 12 Sur 23 Sudoeste 0 -- -- 11
2020-08-26 17:00:00 38.7 9 Sudoeste 20 Sudoeste 0 -- -- 14
2020-08-26 16:00:00 38 5 Este 14 Norte 0 -- -- 15
2020-08-26 15:00:00 37.1 7 Sudoeste 17 Sudoeste 0 -- -- 16
2020-08-26 14:00:00 35.7 7 Sudoeste 18 Sudoeste 0 -- -- 19
2020-08-26 13:00:00 34 8 Sudoeste 16 Sur 0 -- -- 24
2020-08-26 12:00:00 32 5 Sur 12 Sur 0 -- -- 30
2020-08-26 11:00:00 29.1 4 Sudeste 8 Sudeste 0 -- -- 37
2020-08-26 10:00:00 23.6 0 Calma 3 Norte 0 -- -- 48
2020-08-26 09:00:00 20.4 2 Norte 5 Oeste 0 -- -- 56
2020-08-26 08:00:00 18.9 2 Oeste 4 Oeste 0 -- -- 59
2020-08-26 07:00:00 18.5 0 Calma 5 Norte 0 -- -- 55
2020-08-26 06:00:00 19.9 3 Oeste 14 Sudoeste 0 -- -- 54
2020-08-26 05:00:00 21.2 8 Sudoeste 12 Sudoeste 0 -- -- 52
2020-08-26 04:00:00 22.4 6 Sudoeste 12 Sudoeste 0 -- -- 48
2020-08-26 03:00:00 23.3 5 Sudoeste 15 Sudoeste 0 -- -- 43
2020-08-26 02:00:00 24.3 8 Sudoeste 17 Sudoeste 0 -- -- 38
2020-08-26 01:00:00 26.2 5 Sudoeste 10 Sudoeste 0 -- -- 32
2020-08-26 00:00:00 27.6 6 Oeste 17 Sudoeste 0 -- -- 30
2020-08-25 23:00:00 29 12 Sudoeste 20 Sudoeste 0 -- -- 27
2020-08-25 22:00:00 30.9 14 Sudoeste 29 Sudoeste 0 -- -- 23
2020-08-25 21:00:00 34.3 10 Sudoeste 21 Sudoeste 0 -- -- 18
2020-08-25 20:00:00 36.8 12 Sudoeste 26 Oeste 0 -- -- 14
2020-08-25 19:00:00 38.3 15 Sudoeste 24 Sudoeste 0 -- -- 14
2020-08-25 18:00:00 38.3 13 Sur 30 Sudoeste 0 -- -- 14
2020-08-25 17:00:00 38.7 13 Sudoeste 29 Sudoeste 0 -- -- 16
2020-08-25 16:00:00 37.6 17 Sudoeste 28 Sudoeste 0 -- -- 17
2020-08-25 15:00:00 37 12 Sudoeste 27 Sudoeste 0 -- -- 18
2020-08-25 14:00:00 35.4 8 Sur 16 Sudoeste 0 -- -- 21
2020-08-25 13:00:00 33.7 5 Sur 14 Sudeste 0 -- -- 23
2020-08-25 12:00:00 31.6 4 Nordeste 10 Nordeste 0 -- -- 28
2020-08-25 11:00:00 28.6 2 Noroeste 5 Oeste 0 -- -- 34
2020-08-25 10:00:00 24.5 2 Oeste 4 Oeste 0 -- -- 42
2020-08-25 09:00:00 21.6 0 Calma 2 Norte 0 -- -- 45
2020-08-25 08:00:00 18.9 0 Calma 3 Noroeste 0 -- -- 52
2020-08-25 07:00:00 20 2 Noroeste 8 Sur 0 -- -- 47
2020-08-25 06:00:00 21.9 2 Sudoeste 5 Sudoeste 0 -- -- 49
2020-08-25 05:00:00 22.1 2 Sudoeste 9 Sudoeste 0 -- -- 45
2020-08-25 04:00:00 23.9 4 Sudoeste 10 Sur 0 -- -- 41
2020-08-25 03:00:00 24.2 5 Sur 11 Sudoeste 0 -- -- 38
2020-08-25 02:00:00 25.4 4 Nordeste 7 Nordeste 0 -- -- 31
2020-08-25 01:00:00 26.4 4 Norte 6 Norte 0 -- -- 28
2020-08-25 00:00:00 27.5 4 Noroeste 14 Noroeste 0 -- -- 26
2020-08-24 23:00:00 29.5 2 Noroeste 7 Noroeste 0 -- -- 24
2020-08-24 22:00:00 31.1 2 Sudeste -- -- 0 -- -- 22
2020-08-24 21:00:00 33.4 6 Este 15 Nordeste 0 -- -- 20
2020-08-24 20:00:00 35.1 5 Nordeste 11 Norte 0 -- -- 17
2020-08-24 19:00:00 37.1 6 Norte 16 Norte 0 -- -- 15
2020-08-24 18:00:00 37.1 11 Norte 23 Nordeste 0 -- -- 16
2020-08-24 17:00:00 37.1 6 Noroeste 24 Este 0 -- -- 16
2020-08-24 16:00:00 36.1 8 Nordeste 21 Sudeste 0 -- -- 19
2020-08-24 15:00:00 35.8 5 Este 20 Este 0 -- -- 21
2020-08-24 14:00:00 33.9 10 Nordeste 22 Este 0 -- -- 23
2020-08-24 13:00:00 32.5 12 Nordeste 23 Nordeste 0 -- -- 21
2020-08-24 12:00:00 30.9 12 Nordeste 24 Nordeste 0 -- -- 22
2020-08-24 11:00:00 28.5 15 Nordeste 28 Este 0 -- -- 26
2020-08-24 10:00:00 26.7 6 Norte 11 Nordeste 0 -- -- 32
2020-08-24 09:00:00 22.8 2 Este 8 Norte 0 -- -- 42
2020-08-24 08:00:00 21.1 3 Norte 13 Norte 0 -- -- 45
2020-08-24 07:00:00 21.3 7 Norte 11 Norte 0 -- -- 47
2020-08-24 06:00:00 21.6 5 Norte 8 Norte 0 -- -- 48
2020-08-24 05:00:00 22.2 0 Calma 10 Norte 0 -- -- 48
2020-08-24 04:00:00 23.1 8 Norte 13 Norte 0 -- -- 46
2020-08-24 03:00:00 24 9 Norte 13 Norte 0 -- -- 43
2020-08-24 02:00:00 24.9 9 Norte 14 Norte 0 -- -- 37
2020-08-24 01:00:00 25.4 8 Norte 15 Norte 0 -- -- 34
2020-08-24 00:00:00 26.3 9 Norte 14 Noroeste 0 -- -- 31
2020-08-23 23:00:00 27.3 8 Norte 13 Noroeste 0 -- -- 26
2020-08-23 22:00:00 29 9 Noroeste 18 Norte 0 -- -- 22
2020-08-23 21:00:00 32 12 Noroeste 21 Noroeste 0 -- -- 19
2020-08-23 20:00:00 33.8 9 Noroeste 23 Noroeste 0 -- -- 14
2020-08-23 19:00:00 35.7 7 Noroeste 22 Norte 0 -- -- 12
2020-08-23 18:00:00 35.7 13 Noroeste 24 Noroeste 0 -- -- 12
2020-08-23 17:00:00 35.9 6 Noroeste 20 Noroeste 0 -- -- 15
2020-08-23 16:00:00 34.7 6 Este 21 Este 0 -- -- 16
2020-08-23 15:00:00 34.3 9 Noroeste 23 Noroeste 0 -- -- 17
2020-08-23 14:00:00 33.3 11 Noroeste 21 Nordeste 0 -- -- 19
2020-08-23 13:00:00 31.5 11 Norte 22 Nordeste 0 -- -- 21
2020-08-23 12:00:00 29.9 11 Nordeste 21 Norte 0 -- -- 22
2020-08-23 11:00:00 27.8 8 Norte 15 Norte 0 -- -- 29
2020-08-23 10:00:00 24 6 Norte 10 Norte 0 -- -- 37
2020-08-23 09:00:00 19.9 3 Norte 8 Oeste 0 -- -- 47
2020-08-23 08:00:00 17.2 5 Oeste 8 Oeste 0 -- -- 55
2020-08-23 07:00:00 17.8 4 Sudoeste 8 Sudoeste 0 -- -- 52
2020-08-23 06:00:00 18 6 Sudoeste 10 Sudoeste 0 -- -- 50
2020-08-23 05:00:00 19.8 3 Sudoeste 5 Sudoeste 0 -- -- 44
2020-08-23 04:00:00 20.5 4 Sudoeste 9 Noroeste 0 -- -- 42
2020-08-23 03:00:00 21.5 4 Noroeste 11 Noroeste 0 -- -- 40
2020-08-23 02:00:00 22.7 7 Noroeste 16 Norte 0 -- -- 36
2020-08-23 01:00:00 23.5 5 Noroeste 14 Noroeste 0 -- -- 34
2020-08-23 00:00:00 24.9 10 Noroeste 36 Noroeste 0 -- -- 33
2020-08-22 23:00:00 26.6 23 Noroeste 36 Noroeste 0 -- -- 33
2020-08-22 22:00:00 26.9 8 Noroeste 23 Noroeste 0 -- -- 18
2020-08-22 21:00:00 30.1 16 Noroeste 30 Noroeste 0 -- -- 15
2020-08-22 20:00:00 32.9 14 Noroeste 28 Oeste 0 -- -- 13
2020-08-22 19:00:00 34.8 10 Noroeste 21 Oeste 0 -- -- 13
2020-08-22 18:00:00 34.5 4 Nordeste 22 Noroeste 0 -- -- 16
2020-08-22 17:00:00 34.2 7 Norte 23 Noroeste 0 -- -- 16
2020-08-22 16:00:00 33.7 8 Sudoeste 21 Noroeste 0 -- -- 18
2020-08-22 15:00:00 31.8 7 Norte 15 Noroeste 0 -- -- 23
2020-08-22 14:00:00 29.8 4 Norte 20 Sudoeste 0 -- -- 28
2020-08-22 13:00:00 28.2 3 Nordeste 18 Sur 0 -- -- 34
2020-08-22 12:00:00 26.2 4 Nordeste 9 Norte 0 -- -- 41
2020-08-22 11:00:00 23 5 Oeste 10 Sudoeste 0 -- -- 51
2020-08-22 10:00:00 20 4 Oeste 10 Sudoeste 0 -- -- 62
2020-08-22 09:00:00 17.3 3 Sur 6 Sur 0 -- -- 74
2020-08-22 08:00:00 16 2 Norte 4 Norte 0 -- -- 75
2020-08-22 07:00:00 15.8 2 Sur 4 Sur 0 -- -- 77
2020-08-22 06:00:00 16.4 2 Sur 6 Sur 0 -- -- 75
2020-08-22 05:00:00 16.9 4 Sur 6 Sur 0 -- -- 72
2020-08-22 04:00:00 17.8 2 Sur 4 Sudeste 0 -- -- 68
2020-08-22 03:00:00 18.3 4 Sur 6 Sudoeste 0 -- -- 65
2020-08-22 02:00:00 19.2 2 Sudoeste 9 Sudoeste 0 -- -- 60
2020-08-22 01:00:00 20.2 6 Sudoeste 15 Sudoeste 0 -- -- 56
2020-08-22 00:00:00 21.1 11 Sudoeste 17 Sudoeste 0 -- -- 51
2020-08-21 23:00:00 22.2 11 Sudoeste 19 Sudoeste 0 -- -- 44
2020-08-21 22:00:00 24.1 10 Sudoeste 21 Sudoeste 0 -- -- 41
2020-08-21 21:00:00 26.3 9 Sur 23 Sur 0 -- -- 38
2020-08-21 20:00:00 27.6 14 Sur 28 Sudoeste 0 -- -- 34
2020-08-21 19:00:00 29.1 17 Sudoeste 32 Sudoeste 0 -- -- 39
2020-08-21 18:00:00 28.6 19 Sudoeste 32 Sudoeste 0 -- -- 42
2020-08-21 17:00:00 27.9 14 Oeste 28 Sudoeste 0 -- -- 45
2020-08-21 16:00:00 27.6 10 Oeste 21 Sudoeste 0 -- -- 52
2020-08-21 15:00:00 26.4 12 Sudoeste 23 Sudoeste 0 -- -- 61
2020-08-21 14:00:00 23.9 8 Oeste 14 Sudoeste 0 -- -- 77
2020-08-21 13:00:00 21.4 8 Sudoeste 21 Oeste 0.2 -- -- 86
2020-08-21 12:00:00 22.5 13 Oeste 19 Sudoeste 0 -- -- 72
2020-08-21 11:00:00 22 9 Oeste 18 Sudoeste 0 -- -- 71
2020-08-21 10:00:00 21.5 10 Sudoeste 20 Sudoeste 0 -- -- 75
2020-08-21 09:00:00 20.8 11 Sudoeste 17 Sudoeste 0 -- -- 79
2020-08-21 08:00:00 20.2 11 Sudoeste 15 Sur 0 -- -- 86
2020-08-21 07:00:00 20.3 9 Sudoeste 14 Sudoeste 0 -- -- 88
2020-08-21 06:00:00 20.8 9 Sudoeste 17 Oeste 0 -- -- 87
2020-08-21 05:00:00 21.7 11 Sudoeste 18 Sudoeste 0 -- -- 85
2020-08-21 04:00:00 21.9 8 Sudoeste 17 Sudoeste 0 -- -- 84
2020-08-21 03:00:00 22 14 Sudoeste 22 Sudoeste 0 -- -- 84
2020-08-21 02:00:00 22 12 Sudoeste 23 Sudoeste 0 -- -- 82
2020-08-21 01:00:00 22.3 17 Sudoeste 29 Sudoeste 0 -- -- 81
2020-08-21 00:00:00 22.9 23 Sudoeste 34 Sudoeste 0 -- -- 78